Time;durP1;ratioP1;P1;durP2;ratioP2;P2;SDS_P1;SDS_P2;PMS_P1;PMS_P2;Temp;Humidity;BMP_temperature;BMP_pressure;BME280_temperature;BME280_humidity;BME280_pressure;Samples;Min_cycle;Max_cycle;Signal;HPM_P1;HPM_P2
2021/07/04 00:00:17;;;;;;;18.42;14.55;;;18.00;99.90;;;;;;5022946;28;20230;-77
2021/07/04 00:02:44;;;;;;;22.00;17.05;;;18.00;99.90;;;;;;5022993;28;20212;-77
2021/07/04 00:05:13;;;;;;;17.55;15.15;;;18.00;99.90;;;;;;5021739;28;20201;-79
2021/07/04 00:07:41;;;;;;;19.48;15.57;;;18.00;99.90;;;;;;5022652;28;20222;-79
2021/07/04 00:10:10;;;;;;;16.10;14.40;;;18.00;99.90;;;;;;5022780;28;20238;-78
2021/07/04 00:12:37;;;;;;;16.77;13.90;;;18.00;99.90;;;;;;5022718;28;20248;-78
2021/07/04 00:15:06;;;;;;;17.02;15.23;;;18.00;99.90;;;;;;5022794;28;20712;-80
2021/07/04 00:17:35;;;;;;;18.02;14.85;;;18.00;99.90;;;;;;5023535;28;20222;-79
2021/07/04 00:20:02;;;;;;;19.88;17.77;;;18.00;99.90;;;;;;5023128;28;20239;-77
2021/07/04 00:22:28;;;;;;;17.85;15.85;;;18.00;99.90;;;;;;5023132;28;20608;-79
2021/07/04 00:24:55;;;;;;;22.50;18.13;;;18.00;99.90;;;;;;5027756;28;20206;-77
2021/07/04 00:27:23;;;;;;;21.17;17.20;;;18.00;99.90;;;;;;5027131;28;20210;-80
2021/07/04 00:29:50;;;;;;;17.45;14.93;;;18.00;99.90;;;;;;5027191;28;20217;-84
2021/07/04 00:32:17;;;;;;;18.20;16.10;;;18.00;99.90;;;;;;5026373;28;20289;-81
2021/07/04 00:34:45;;;;;;;22.52;18.13;;;18.00;99.90;;;;;;5026854;28;20202;-80
2021/07/04 00:37:12;;;;;;;20.80;18.02;;;18.00;99.90;;;;;;5025852;28;20293;-81
2021/07/04 00:39:39;;;;;;;18.48;15.45;;;18.00;99.90;;;;;;5026652;28;20222;-80
2021/07/04 00:42:07;;;;;;;20.50;16.35;;;18.00;99.90;;;;;;5025459;28;20824;-82
2021/07/04 00:44:33;;;;;;;22.10;18.13;;;18.00;99.90;;;;;;5027097;28;20658;-82
2021/07/04 00:47:00;;;;;;;19.73;15.27;;;18.00;99.90;;;;;;5025638;28;20203;-80
2021/07/04 00:49:27;;;;;;;20.45;17.10;;;18.00;99.90;;;;;;5027011;28;20245;-79
2021/07/04 00:51:55;;;;;;;23.23;17.95;;;18.00;99.90;;;;;;5026913;28;20194;-80
2021/07/04 00:54:23;;;;;;;17.17;15.30;;;18.00;99.90;;;;;;5025495;28;20602;-79
2021/07/04 00:56:50;;;;;;;15.40;13.77;;;18.00;99.90;;;;;;5026663;28;20495;-80
2021/07/04 00:59:17;;;;;;;24.50;19.90;;;18.00;99.90;;;;;;5026275;28;20223;-79
2021/07/04 01:01:43;;;;;;;20.45;16.83;;;18.00;99.90;;;;;;5025972;28;20198;-78
2021/07/04 01:04:11;;;;;;;17.23;15.38;;;18.00;99.90;;;;;;5025609;28;20211;-79
2021/07/04 01:06:38;;;;;;;23.05;17.58;;;18.00;99.90;;;;;;5025720;28;20257;-78
2021/07/04 01:09:07;;;;;;;19.90;17.77;;;18.00;99.90;;;;;;5025081;28;20202;-78
2021/07/04 01:11:34;;;;;;;18.13;16.17;;;18.00;99.90;;;;;;5025767;28;20685;-78
2021/07/04 01:14:02;;;;;;;19.42;14.90;;;18.00;99.90;;;;;;5025835;28;20210;-78
2021/07/04 01:16:28;;;;;;;18.08;16.00;;;18.00;99.90;;;;;;5025842;28;20227;-77
2021/07/04 01:18:56;;;;;;;21.10;17.92;;;18.00;99.90;;;;;;5025755;28;20249;-79
2021/07/04 01:21:25;;;;;;;20.92;17.30;;;18.00;99.90;;;;;;5035645;28;20212;-79
2021/07/04 01:23:53;;;;;;;23.00;19.60;;;18.00;99.90;;;;;;5045338;28;20206;-78
2021/07/04 01:26:20;;;;;;;25.13;18.45;;;18.00;99.90;;;;;;5045734;28;20206;-79
2021/07/04 01:28:48;;;;;;;18.67;16.67;;;18.00;99.90;;;;;;5035364;28;20225;-80
2021/07/04 01:31:15;;;;;;;20.95;17.10;;;18.00;99.90;;;;;;5024714;28;20572;-80
2021/07/04 01:33:41;;;;;;;23.23;19.42;;;18.00;99.90;;;;;;5025801;28;20825;-79
2021/07/04 01:36:10;;;;;;;21.02;17.60;;;18.00;99.90;;;;;;5025064;28;20206;-80
2021/07/04 01:38:37;;;;;;;29.67;23.35;;;18.00;99.90;;;;;;5045830;28;20902;-78
2021/07/04 01:41:05;;;;;;;29.75;23.75;;;18.00;99.90;;;;;;5045315;28;20202;-77
2021/07/04 01:43:33;;;;;;;25.30;20.70;;;18.00;99.90;;;;;;5034799;28;20210;-78
2021/07/04 01:45:59;;;;;;;28.13;21.42;;;18.00;99.90;;;;;;5026787;28;20206;-76
2021/07/04 01:48:26;;;;;;;31.88;23.90;;;18.00;99.90;;;;;;5026142;28;20202;-77
2021/07/04 01:50:54;;;;;;;29.60;22.42;;;18.00;99.90;;;;;;5025506;28;20654;-81
2021/07/04 01:53:23;;;;;;;31.88;24.45;;;18.00;99.90;;;;;;5025651;28;20198;-80
2021/07/04 01:55:51;;;;;;;32.90;24.60;;;18.00;99.90;;;;;;5026488;28;20217;-78
2021/07/04 01:58:19;;;;;;;34.00;25.38;;;18.00;99.90;;;;;;5025388;28;20696;-79
2021/07/04 02:00:46;;;;;;;34.45;24.35;;;18.00;99.90;;;;;;5026458;28;20264;-80
2021/07/04 02:03:15;;;;;;;28.80;23.92;;;18.00;99.90;;;;;;5025475;28;20269;-77
2021/07/04 02:05:41;;;;;;;32.83;24.75;;;18.00;99.90;;;;;;5025462;28;20211;-78
2021/07/04 02:08:08;;;;;;;31.35;23.40;;;18.00;99.90;;;;;;5029558;28;21007;-80
2021/07/04 02:10:38;;;;;;;34.50;25.27;;;18.00;99.90;;;;;;5046170;28;20202;-81
2021/07/04 02:13:07;;;;;;;30.90;24.17;;;18.00;99.90;;;;;;5044597;28;20209;-79
2021/07/04 02:15:38;;;;;;;28.80;22.45;;;18.00;99.90;;;;;;5030174;28;20733;-79
2021/07/04 02:18:07;;;;;;;25.95;20.25;;;18.00;99.90;;;;;;5025314;28;20222;-78
2021/07/04 02:20:37;;;;;;;23.40;18.92;;;18.00;99.90;;;;;;5026205;28;20230;-78
2021/07/04 02:23:08;;;;;;;24.90;19.02;;;18.00;99.90;;;;;;5045215;28;20190;-80
2021/07/04 02:25:36;;;;;;;29.00;23.15;;;18.00;99.90;;;;;;5044538;28;20206;-78
2021/07/04 02:28:03;;;;;;;31.45;24.02;;;18.00;99.90;;;;;;5044545;28;20202;-79
2021/07/04 02:30:30;;;;;;;37.15;26.77;;;18.00;99.90;;;;;;5036236;28;20603;-77
2021/07/04 02:33:01;;;;;;;39.08;28.40;;;18.00;99.90;;;;;;5023351;28;20517;-78
2021/07/04 02:35:28;;;;;;;41.67;30.42;;;18.00;99.90;;;;;;5024116;28;20288;-76
2021/07/04 02:37:57;;;;;;;43.28;29.45;;;18.00;99.90;;;;;;5024034;28;20221;-80
2021/07/04 02:40:25;;;;;;;43.00;29.42;;;18.00;99.90;;;;;;5023614;28;20238;-82
2021/07/04 02:42:51;;;;;;;34.67;25.60;;;18.00;99.90;;;;;;5024104;28;20294;-79
2021/07/04 02:45:19;;;;;;;34.65;25.42;;;18.00;99.90;;;;;;5023563;28;20514;-79
2021/07/04 02:47:45;;;;;;;31.55;23.83;;;18.00;99.90;;;;;;5032769;22;20229;-79
2021/07/04 02:50:14;;;;;;;33.35;22.23;;;18.10;99.90;;;;;;5023954;28;20225;-79
2021/07/04 02:52:41;;;;;;;30.70;21.92;;;18.00;99.90;;;;;;5034945;28;20217;-78
2021/07/04 02:55:10;;;;;;;24.02;17.88;;;18.00;99.90;;;;;;5045213;28;20205;-80
2021/07/04 02:57:37;;;;;;;17.40;15.25;;;18.00;99.90;;;;;;5045964;28;20201;-80
2021/07/04 03:00:07;;;;;;;13.68;12.25;;;18.00;99.90;;;;;;5045960;28;20225;-80
2021/07/04 03:02:33;;;;;;;14.80;12.55;;;18.00;99.90;;;;;;5043248;28;20202;-79
2021/07/04 03:05:00;;;;;;;13.45;11.57;;;18.00;99.90;;;;;;5043306;28;20206;-79
2021/07/04 03:07:28;;;;;;;14.80;12.02;;;18.00;99.90;;;;;;5044722;28;20205;-80
2021/07/04 03:09:55;;;;;;;13.88;11.88;;;17.90;99.90;;;;;;5044194;28;20204;-79
2021/07/04 03:12:22;;;;;;;12.25;10.88;;;17.90;99.90;;;;;;5039781;28;20222;-80
2021/07/04 03:14:49;;;;;;;15.70;13.73;;;17.90;99.90;;;;;;5023854;28;20198;-79
2021/07/04 03:17:15;;;;;;;17.90;13.75;;;17.90;99.90;;;;;;5013820;28;20914;-81
2021/07/04 03:19:43;;;;;;;13.32;11.93;;;18.00;99.90;;;;;;5003959;28;20227;-80
2021/07/04 03:22:10;;;;;;;17.05;13.32;;;18.00;99.90;;;;;;5003984;28;20203;-80
2021/07/04 03:24:40;;;;;;;16.75;14.25;;;17.90;99.90;;;;;;5005286;28;20191;-79
2021/07/04 03:27:07;;;;;;;14.55;12.43;;;17.90;99.90;;;;;;5005308;28;20211;-77
2021/07/04 03:29:34;;;;;;;13.45;11.48;;;17.90;99.90;;;;;;4986003;28;20350;-78
2021/07/04 03:32:01;;;;;;;14.95;12.00;;;17.90;99.90;;;;;;4985395;28;20211;-80
2021/07/04 03:34:28;;;;;;;14.43;11.63;;;17.90;99.90;;;;;;4984881;28;20211;-78
2021/07/04 03:36:55;;;;;;;16.77;13.73;;;17.90;99.90;;;;;;4984204;28;20628;-80
2021/07/04 03:39:21;;;;;;;14.18;11.95;;;17.90;99.90;;;;;;4984251;28;20839;-82
2021/07/04 03:41:50;;;;;;;14.82;12.63;;;17.90;99.90;;;;;;4985249;28;20203;-79
2021/07/04 03:44:17;;;;;;;16.92;12.50;;;17.80;99.90;;;;;;4983364;28;20226;-79
2021/07/04 03:46:45;;;;;;;14.18;11.95;;;17.80;99.90;;;;;;4984688;28;20199;-79
2021/07/04 03:49:12;;;;;;;13.85;11.80;;;17.80;99.90;;;;;;4983456;28;20244;-77
2021/07/04 03:51:39;;;;;;;11.55;10.35;;;17.80;99.90;;;;;;4983392;28;20200;-79
2021/07/04 03:54:05;;;;;;;14.73;12.25;;;17.80;99.90;;;;;;4984078;28;20212;-79
2021/07/04 03:56:32;;;;;;;17.23;13.98;;;17.80;99.90;;;;;;4984220;28;20219;-78
2021/07/04 03:59:00;;;;;;;14.73;13.00;;;17.70;99.90;;;;;;4982926;28;20195;-79
2021/07/04 04:01:27;;;;;;;14.55;13.05;;;17.70;99.90;;;;;;4984299;28;20223;-81
2021/07/04 04:03:54;;;;;;;15.30;13.38;;;17.60;99.90;;;;;;4984420;28;20198;-80
2021/07/04 04:06:22;;;;;;;19.30;15.60;;;17.60;99.90;;;;;;4984271;28;20227;-80
2021/07/04 04:08:49;;;;;;;15.80;13.98;;;17.60;99.90;;;;;;4984645;28;20945;-80
2021/07/04 04:11:15;;;;;;;14.48;12.98;;;17.50;99.90;;;;;;4983655;28;20215;-79
2021/07/04 04:13:42;;;;;;;14.93;13.43;;;17.50;99.90;;;;;;4984951;28;20208;-80
2021/07/04 04:16:10;;;;;;;14.35;12.88;;;17.50;99.90;;;;;;4984574;28;20623;-80
2021/07/04 04:18:37;;;;;;;16.27;13.50;;;17.50;99.90;;;;;;4983811;28;20192;-83
2021/07/04 04:21:05;;;;;;;12.43;11.23;;;17.50;99.90;;;;;;4999172;28;20258;-82
2021/07/04 04:23:32;;;;;;;14.50;12.93;;;17.50;99.90;;;;;;5003438;28;20608;-83
2021/07/04 04:25:59;;;;;;;19.85;15.30;;;17.50;99.90;;;;;;4999707;28;20534;-82
2021/07/04 04:28:25;;;;;;;14.90;13.40;;;17.50;99.90;;;;;;4983539;28;20210;-81
2021/07/04 04:30:52;;;;;;;14.05;12.23;;;17.50;99.90;;;;;;4984434;28;20195;-80
2021/07/04 04:33:21;;;;;;;13.57;11.77;;;17.50;99.90;;;;;;4982456;28;20203;-80
2021/07/04 04:35:47;;;;;;;13.63;12.10;;;17.60;99.90;;;;;;4983073;28;20216;-82
2021/07/04 04:38:14;;;;;;;12.98;11.15;;;17.60;99.90;;;;;;4983121;28;20361;-79
2021/07/04 04:40:41;;;;;;;13.80;12.30;;;17.60;99.90;;;;;;4983717;28;20234;-80
2021/07/04 04:43:08;;;;;;;15.65;12.75;;;17.70;99.90;;;;;;4983417;28;20506;-80
2021/07/04 04:45:36;;;;;;;14.52;13.00;;;17.70;99.90;;;;;;4982874;28;20589;-81
2021/07/04 04:48:03;;;;;;;17.13;12.32;;;17.70;99.90;;;;;;4983321;28;20246;-79
2021/07/04 04:50:31;;;;;;;18.35;14.25;;;17.70;99.90;;;;;;4986372;28;20518;-80
2021/07/04 04:52:58;;;;;;;13.60;12.18;;;17.70;99.90;;;;;;5003293;28;20215;-83
2021/07/04 04:55:24;;;;;;;12.48;11.15;;;17.70;99.90;;;;;;5003152;28;20207;-83
2021/07/04 04:57:51;;;;;;;17.48;14.10;;;17.80;99.90;;;;;;5002830;28;20195;-82
2021/07/04 05:00:19;;;;;;;18.08;13.43;;;17.80;99.90;;;;;;5001014;28;20227;-81
2021/07/04 05:02:47;;;;;;;16.13;13.75;;;17.80;99.90;;;;;;5003505;28;20199;-83
2021/07/04 05:05:14;;;;;;;12.75;11.45;;;18.00;99.90;;;;;;5002067;28;20211;-80
2021/07/04 05:07:43;;;;;;;11.77;10.55;;;18.10;99.90;;;;;;4994817;28;20207;-81
2021/07/04 05:10:11;;;;;;;12.27;10.45;;;18.30;99.90;;;;;;5005805;28;20220;-81
2021/07/04 05:12:37;;;;;;;10.75;9.73;;;18.50;99.90;;;;;;4991399;28;20219;-79
2021/07/04 05:15:06;;;;;;;11.77;10.45;;;18.80;99.90;;;;;;4986652;28;20204;-79
2021/07/04 05:17:33;;;;;;;11.23;9.50;;;19.10;99.90;;;;;;4987286;28;20219;-82
2021/07/04 05:19:59;;;;;;;12.55;10.18;;;19.20;99.90;;;;;;4987668;28;20227;-82
2021/07/04 05:22:26;;;;;;;12.00;9.65;;;19.40;99.90;;;;;;4985739;28;20557;-80
2021/07/04 05:24:55;;;;;;;10.10;9.10;;;19.60;99.90;;;;;;4986800;28;20208;-80
2021/07/04 05:27:25;;;;;;;10.38;9.38;;;19.90;99.90;;;;;;4986652;28;20208;-81
2021/07/04 05:29:52;;;;;;;9.27;8.38;;;20.20;99.90;;;;;;4986676;28;20212;-81
2021/07/04 05:32:20;;;;;;;7.88;6.95;;;20.60;99.90;;;;;;4986116;28;20200;-80
2021/07/04 05:34:46;;;;;;;7.55;6.78;;;21.10;99.90;;;;;;4987105;28;20563;-82
2021/07/04 05:37:13;;;;;;;8.15;5.05;;;21.60;99.90;;;;;;4986280;28;20208;-81
2021/07/04 05:39:40;;;;;;;7.22;4.97;;;22.00;99.90;;;;;;4986461;28;20203;-79
2021/07/04 05:42:08;;;;;;;4.72;4.22;;;22.40;99.90;;;;;;4986650;28;20185;-83
2021/07/04 05:44:36;;;;;;;5.50;5.00;;;22.70;99.90;;;;;;4995114;28;20866;-83
2021/07/04 05:47:03;;;;;;;5.70;4.88;;;23.00;99.90;;;;;;4988314;28;20197;-78
2021/07/04 05:49:30;;;;;;;5.60;3.80;;;23.30;99.90;;;;;;4986227;28;20240;-78
2021/07/04 05:51:57;;;;;;;4.22;3.83;;;23.60;99.90;;;;;;4987390;28;20200;-79
2021/07/04 05:54:24;;;;;;;4.07;3.67;;;23.80;99.90;;;;;;4986893;28;20216;-79
2021/07/04 05:56:50;;;;;;;4.47;4.00;;;23.90;99.90;;;;;;4987061;28;20207;-81
2021/07/04 05:59:18;;;;;;;4.25;3.72;;;23.90;99.90;;;;;;4986586;28;20204;-79
2021/07/04 06:01:47;;;;;;;5.05;4.43;;;23.70;99.90;;;;;;4987281;28;20228;-80
2021/07/04 06:04:13;;;;;;;4.70;4.30;;;23.60;99.90;;;;;;4986307;28;20251;-80
2021/07/04 06:06:40;;;;;;;4.88;4.47;;;23.40;99.90;;;;;;4986809;28;20199;-80
2021/07/04 06:09:07;;;;;;;4.72;4.15;;;23.20;99.90;;;;;;4986342;28;20210;-79
2021/07/04 06:11:34;;;;;;;4.10;3.70;;;23.10;99.90;;;;;;4987880;28;20207;-85
2021/07/04 06:14:00;;;;;;;5.25;4.72;;;22.80;99.90;;;;;;4987362;28;20207;-81
2021/07/04 06:16:29;;;;;;;6.00;3.90;;;22.70;99.90;;;;;;4987264;28;20231;-84
2021/07/04 06:18:55;;;;;;;4.68;4.07;;;23.00;99.90;;;;;;4987410;28;20606;-79
2021/07/04 06:21:22;;;;;;;5.95;5.15;;;23.30;99.90;;;;;;4986853;28;20232;-85
2021/07/04 06:23:51;;;;;;;6.53;5.22;;;23.70;99.90;;;;;;4986893;28;20777;-83
2021/07/04 06:26:18;;;;;;;5.30;4.45;;;23.80;99.90;;;;;;4987318;28;20200;-80
2021/07/04 06:28:44;;;;;;;4.78;4.38;;;24.10;99.90;;;;;;4989156;28;20204;-80
2021/07/04 06:31:11;;;;;;;4.85;4.43;;;24.20;99.90;;;;;;4999296;28;20211;-80
2021/07/04 06:33:40;;;;;;;5.18;4.63;;;24.20;99.90;;;;;;5006539;28;20210;-82
2021/07/04 06:36:07;;;;;;;5.18;4.65;;;24.40;99.90;;;;;;5005336;28;20211;-80
2021/07/04 06:38:33;;;;;;;4.93;4.38;;;24.40;99.90;;;;;;5007010;28;20198;-80
2021/07/04 06:41:00;;;;;;;5.18;4.68;;;24.50;99.90;;;;;;5006758;28;20223;-81
2021/07/04 06:43:27;;;;;;;5.00;4.25;;;24.50;99.90;;;;;;5008218;28;20191;-79
2021/07/04 06:45:54;;;;;;;4.28;3.88;;;24.70;99.90;;;;;;5005582;28;20613;-85
2021/07/04 06:48:21;;;;;;;4.18;3.78;;;24.70;99.90;;;;;;4987629;28;20238;-84
2021/07/04 06:50:49;;;;;;;3.97;3.17;;;24.80;99.90;;;;;;4987803;28;20203;-81
2021/07/04 06:53:16;;;;;;;4.32;3.92;;;24.80;99.90;;;;;;4996467;28;20199;-80
2021/07/04 06:55:43;;;;;;;4.55;3.78;;;24.60;99.90;;;;;;5007199;28;20207;-82
2021/07/04 06:58:11;;;;;;;4.80;4.40;;;24.40;99.90;;;;;;4983623;28;20210;-83
2021/07/04 07:00:38;;;;;;;5.78;4.88;;;24.00;99.90;;;;;;5007206;28;20552;-83
2021/07/04 07:03:04;;;;;;;5.60;4.72;;;23.80;99.90;;;;;;4987595;28;20215;-84
2021/07/04 07:05:31;;;;;;;5.82;5.22;;;23.90;99.90;;;;;;4987627;28;20212;-82
2021/07/04 07:07:59;;;;;;;8.57;6.32;;;24.10;99.90;;;;;;4986135;28;20210;-82
2021/07/04 07:10:27;;;;;;;5.60;5.10;;;24.30;99.90;;;;;;5004683;28;20525;-78
2021/07/04 07:12:54;;;;;;;4.88;4.47;;;24.30;99.90;;;;;;5003572;28;20196;-83
2021/07/04 07:15:21;;;;;;;5.85;5.35;;;24.30;99.90;;;;;;5003978;28;20207;-82
2021/07/04 07:17:47;;;;;;;6.60;5.95;;;24.30;99.90;;;;;;5006350;28;20247;-78
2021/07/04 07:20:15;;;;;;;6.43;5.65;;;24.30;99.90;;;;;;5005686;28;20215;-79
2021/07/04 07:22:42;;;;;;;5.80;5.20;;;24.10;99.90;;;;;;4999673;28;20207;-80
2021/07/04 07:25:11;;;;;;;5.00;4.57;;;24.10;99.90;;;;;;4986336;28;20223;-85
2021/07/04 07:27:39;;;;;;;4.15;3.72;;;24.20;99.90;;;;;;4986754;28;20196;-79
2021/07/04 07:30:09;;;;;;;3.88;3.58;;;24.30;99.90;;;;;;4986676;28;20215;-84
2021/07/04 07:32:36;;;;;;;3.58;3.28;;;24.70;99.90;;;;;;4986748;28;20199;-85
2021/07/04 07:35:04;;;;;;;4.32;3.55;;;25.00;99.90;;;;;;4985824;28;20192;-84
2021/07/04 07:37:31;;;;;;;7.57;5.47;;;25.30;99.90;;;;;;4985193;28;20228;-85
2021/07/04 07:39:58;;;;;;;5.25;4.75;;;25.60;99.90;;;;;;4985296;28;20948;-82
2021/07/04 07:42:26;;;;;;;5.68;4.93;;;25.90;99.90;;;;;;4985739;28;20231;-81
2021/07/04 07:44:53;;;;;;;5.18;4.32;;;26.20;99.90;;;;;;4994392;28;20207;-83
2021/07/04 07:47:20;;;;;;;3.25;2.70;;;26.50;99.90;;;;;;5012857;28;20202;-80
2021/07/04 07:49:46;;;;;;;4.07;3.20;;;26.50;99.90;;;;;;4997150;28;20552;-84
2021/07/04 07:52:13;;;;;;;3.15;2.85;;;26.70;99.90;;;;;;4985726;28;20208;-85
2021/07/04 07:54:40;;;;;;;4.65;3.58;;;27.00;99.90;;;;;;4987482;28;20208;-82
2021/07/04 07:57:08;;;;;;;4.78;4.22;;;27.20;99.90;;;;;;4995000;28;20210;-86
2021/07/04 07:59:36;;;;;;;5.70;4.28;;;27.40;99.90;;;;;;5006394;28;20199;-80
2021/07/04 08:02:03;;;;;;;6.38;4.90;;;27.50;99.90;;;;;;5005913;28;20227;-81
2021/07/04 08:04:30;;;;;;;5.07;4.20;;;27.60;99.90;;;;;;5004535;28;20489;-81
2021/07/04 08:06:57;;;;;;;4.10;3.70;;;27.50;99.90;;;;;;4986360;28;20211;-80
2021/07/04 08:09:24;;;;;;;4.32;3.38;;;27.20;99.90;;;;;;4985837;28;20204;-83
2021/07/04 08:11:50;;;;;;;5.00;3.42;;;27.10;99.90;;;;;;4986684;28;20541;-83
2021/07/04 08:14:17;;;;;;;4.45;4.05;;;27.00;99.90;;;;;;5004581;28;20595;-85
2021/07/04 08:16:45;;;;;;;7.07;4.00;;;27.00;99.90;;;;;;5004595;28;20224;-82
2021/07/04 08:19:13;;;;;;;3.58;3.28;;;26.80;99.90;;;;;;5004310;28;20203;-81
2021/07/04 08:21:39;;;;;;;3.97;3.58;;;26.70;99.90;;;;;;4986978;28;20226;-86
2021/07/04 08:24:07;;;;;;;3.92;3.42;;;26.50;99.90;;;;;;4987098;28;20608;-79
2021/07/04 08:26:34;;;;;;;4.43;3.15;;;26.40;99.90;;;;;;4987885;28;20207;-86
2021/07/04 08:29:01;;;;;;;4.85;3.63;;;26.30;99.90;;;;;;4985889;28;20219;-85
2021/07/04 08:31:28;;;;;;;4.25;3.85;;;26.30;99.90;;;;;;4985949;28;20596;-79
2021/07/04 08:33:56;;;;;;;3.35;2.75;;;26.00;99.90;;;;;;4986245;28;20203;-84
2021/07/04 08:36:25;;;;;;;4.05;2.50;;;26.30;99.90;;;;;;4986012;28;20239;-82
2021/07/04 08:38:52;;;;;;;4.93;2.97;;;26.50;99.90;;;;;;4985819;28;20249;-84
2021/07/04 08:41:19;;;;;;;4.05;2.40;;;26.70;99.90;;;;;;4987138;28;20226;-83
2021/07/04 08:46:11;;;;;;;2.45;2.13;;;27.30;99.90;;;;;;5048457;23;20240;-78
2021/07/04 08:48:40;;;;;;;3.08;1.90;;;27.50;99.90;;;;;;5047054;28;20209;-82
2021/07/04 08:51:09;;;;;;;2.53;1.75;;;27.70;99.90;;;;;;5047632;28;20236;-84
2021/07/04 08:53:36;;;;;;;3.30;2.53;;;28.30;99.90;;;;;;5047394;28;20202;-84
2021/07/04 08:56:04;;;;;;;2.13;1.90;;;28.10;99.90;;;;;;5048129;28;20202;-82
2021/07/04 08:58:31;;;;;;;2.70;2.08;;;27.90;99.90;;;;;;5045901;28;20201;-81
2021/07/04 09:01:15;;;;;;;2.30;1.70;;;28.00;99.90;;;;;;5045055;28;20583;-85
2021/07/04 09:03:45;;;;;;;3.13;1.70;;;27.90;99.90;;;;;;5047284;28;20494;-85
2021/07/04 09:06:15;;;;;;;2.88;1.90;;;28.10;99.90;;;;;;5052969;28;20208;-84
2021/07/04 09:08:42;;;;;;;2.30;2.03;;;28.20;99.90;;;;;;5062989;28;20205;-79
2021/07/04 09:11:15;;;;;;;2.88;2.17;;;28.30;99.90;;;;;;5052745;28;20208;-86
2021/07/04 09:13:43;;;;;;;2.35;2.00;;;28.50;99.90;;;;;;5048094;28;20217;-81
2021/07/04 09:16:15;;;;;;;2.67;2.30;;;28.60;99.90;;;;;;5041709;28;20596;-80
2021/07/04 09:18:41;;;;;;;3.08;1.95;;;28.70;99.90;;;;;;5007043;28;20974;-85
2021/07/04 09:21:22;;;;;;;3.50;1.60;;;28.80;99.90;;;;;;5014856;28;20226;-81
2021/07/04 09:23:50;;;;;;;3.03;1.73;;;28.90;99.90;;;;;;5043954;22;20547;-81
2021/07/04 09:26:41;;;;;;;1.98;1.40;;;29.30;99.90;;;;;;5048443;28;20198;-77
2021/07/04 09:29:09;;;;;;;2.90;2.03;;;29.60;99.90;;;;;;5048573;28;20210;-88
2021/07/04 09:31:37;;;;;;;3.53;1.75;;;29.60;99.90;;;;;;5051137;28;20213;-86
2021/07/04 09:34:05;;;;;;;4.43;2.65;;;29.70;99.90;;;;;;5064106;28;20284;-83
2021/07/04 09:36:34;;;;;;;3.53;1.50;;;29.70;99.90;;;;;;5068050;28;20694;-82
2021/07/04 09:39:14;;;;;;;2.25;1.58;;;29.40;99.90;;;;;;5067934;28;20212;-81
2021/07/04 09:42:01;;;;;;;2.25;1.70;;;29.10;99.90;;;;;;5068523;28;20229;-78
2021/07/04 09:44:28;;;;;;;1.48;1.20;;;29.10;99.90;;;;;;5067018;28;20189;-82
2021/07/04 09:47:17;;;;;;;1.73;1.10;;;29.10;99.90;;;;;;5066285;28;20197;-79
2021/07/04 09:49:44;;;;;;;2.35;1.38;;;29.30;99.90;;;;;;5067339;28;20209;-79
2021/07/04 09:52:17;;;;;;;2.47;1.60;;;29.40;99.90;;;;;;5065499;28;20202;-82
2021/07/04 09:54:58;;;;;;;2.38;1.50;;;29.50;99.90;;;;;;5066874;28;20276;-82
2021/07/04 09:57:25;;;;;;;3.67;2.25;;;29.80;99.90;;;;;;5050514;28;20202;-78
2021/07/04 10:00:14;;;;;;;3.35;1.95;;;29.60;99.90;;;;;;5045828;28;20293;-83
2021/07/04 10:02:42;;;;;;;2.28;1.90;;;29.60;99.90;;;;;;5047865;28;20303;-82
2021/07/04 10:05:16;;;;;;;2.33;2.13;;;29.60;99.90;;;;;;5063165;28;20413;-83
2021/07/04 10:07:45;;;;;;;2.35;2.10;;;29.50;99.90;;;;;;5066415;28;20184;-81
2021/07/04 10:10:12;;;;;;;6.03;2.33;;;29.30;99.90;;;;;;5065406;28;20197;-80
2021/07/04 10:12:40;;;;;;;4.60;2.20;;;29.00;99.90;;;;;;5066318;28;20197;-79
2021/07/04 10:15:08;;;;;;;6.35;2.42;;;28.90;99.90;;;;;;5059323;28;20216;-82
2021/07/04 10:17:36;;;;;;;2.63;2.35;;;28.60;99.90;;;;;;5050985;28;20673;-79
2021/07/04 10:20:06;;;;;;;3.20;2.60;;;28.30;99.90;;;;;;5028029;28;20203;-80
2021/07/04 10:22:37;;;;;;;5.03;2.35;;;28.10;99.90;;;;;;5027826;28;20222;-84
2021/07/04 10:25:09;;;;;;;4.72;3.22;;;28.20;99.90;;;;;;5038263;28;20234;-79
2021/07/04 10:27:39;;;;;;;6.07;3.03;;;28.50;99.90;;;;;;5047910;28;20198;-84
2021/07/04 10:30:07;;;;;;;5.68;3.45;;;28.40;99.90;;;;;;5023763;28;20199;-79
2021/07/04 10:32:34;;;;;;;6.30;4.13;;;28.50;99.90;;;;;;5025113;28;20205;-78
2021/07/04 10:35:08;;;;;;;6.53;4.43;;;28.70;99.90;;;;;;5047543;28;20202;-86
2021/07/04 10:37:37;;;;;;;7.93;4.70;;;28.40;99.90;;;;;;5034533;28;20210;-87
2021/07/04 10:40:15;;;;;;;7.28;4.47;;;28.40;99.90;;;;;;5026796;28;20201;-89
2021/07/04 10:42:41;;;;;;;10.35;5.43;;;28.20;99.90;;;;;;5026969;28;20210;-80
2021/07/04 10:45:31;;;;;;;9.30;5.75;;;27.80;99.90;;;;;;5024986;28;20210;-79
2021/07/04 10:47:59;;;;;;;11.35;5.85;;;27.70;99.90;;;;;;5027123;28;20198;-80
2021/07/04 10:50:26;;;;;;;9.43;5.47;;;27.70;99.90;;;;;;5027626;28;20206;-90
2021/07/04 10:52:53;;;;;;;7.90;5.30;;;27.50;99.90;;;;;;5025611;28;20194;-80
2021/07/04 10:55:32;;;;;;;9.63;5.75;;;27.50;99.90;;;;;;5025944;28;20213;-81
2021/07/04 10:58:00;;;;;;;8.95;4.50;;;27.60;99.90;;;;;;5025123;28;20207;-81
2021/07/04 11:00:38;;;;;;;8.32;4.93;;;27.70;99.90;;;;;;5043940;28;20369;-83
2021/07/04 11:03:07;;;;;;;5.43;4.10;;;27.90;99.90;;;;;;5045368;28;20218;-80
2021/07/04 11:05:49;;;;;;;5.80;4.28;;;27.80;99.90;;;;;;5045874;28;20205;-79
2021/07/04 11:08:19;;;;;;;7.65;5.03;;;28.00;99.90;;;;;;5038728;28;20205;-84
2021/07/04 11:10:59;;;;;;;8.35;5.65;;;28.10;99.90;;;;;;5025430;28;20187;-81
2021/07/04 11:13:49;;;;;;;7.57;4.80;;;28.00;99.90;;;;;;5022603;28;20790;-85
2021/07/04 11:16:24;;;;;;;6.65;5.07;;;28.00;99.90;;;;;;5024888;28;20980;-88
2021/07/04 11:19:06;;;;;;;6.85;4.78;;;27.90;99.90;;;;;;5024724;28;20198;-80
2021/07/04 11:21:57;;;;;;;7.13;4.57;;;27.70;99.90;;;;;;5024568;28;20210;-83
2021/07/04 11:24:26;;;;;;;8.23;4.80;;;27.80;99.90;;;;;;5026530;28;20233;-84
2021/07/04 11:27:24;;;;;;;4.85;3.88;;;27.60;99.90;;;;;;5025529;28;20207;-87
2021/07/04 11:30:24;;;;;;;8.02;5.10;;;27.30;99.90;;;;;;5024702;28;20621;-82
2021/07/04 11:33:24;;;;;;;9.35;5.05;;;27.10;99.90;;;;;;5027759;28;20194;-84
2021/07/04 11:35:52;;;;;;;10.43;5.95;;;26.80;99.90;;;;;;5026043;28;20280;-86
2021/07/04 11:38:20;;;;;;;10.35;6.15;;;26.50;99.90;;;;;;5028659;28;20205;-86
2021/07/04 11:40:48;;;;;;;5.05;4.00;;;26.50;99.90;;;;;;5028641;28;20250;-86
2021/07/04 11:43:17;;;;;;;7.38;4.03;;;26.40;99.90;;;;;;5027320;28;20230;-82
2021/07/04 11:45:52;;;;;;;6.13;3.88;;;26.10;99.90;;;;;;5025462;28;20195;-79
2021/07/04 11:48:19;;;;;;;4.38;3.75;;;25.70;99.90;;;;;;5022816;28;20230;-81
2021/07/04 11:50:52;;;;;;;4.60;3.40;;;25.40;99.90;;;;;;5024323;28;20611;-79
2021/07/04 11:53:19;;;;;;;5.03;4.38;;;25.20;99.90;;;;;;5002765;28;20211;-79
2021/07/04 11:55:59;;;;;;;5.03;4.38;;;25.20;99.90;;;;;;5003698;28;20199;-80
2021/07/04 11:58:28;;;;;;;5.15;3.95;;;25.20;99.90;;;;;;5004214;28;20549;-80
2021/07/04 12:00:55;;;;;;;6.90;5.07;;;25.20;99.90;;;;;;5020801;28;20206;-79
2021/07/04 12:03:23;;;;;;;5.78;3.90;;;25.20;99.90;;;;;;5023335;28;20219;-80
2021/07/04 12:05:51;;;;;;;7.65;4.28;;;25.30;99.90;;;;;;5023436;28;20558;-79
2021/07/04 12:08:18;;;;;;;6.75;5.25;;;25.30;99.90;;;;;;5022939;28;20221;-83
2021/07/04 12:10:49;;;;;;;10.77;5.30;;;25.40;99.90;;;;;;5024097;28;20198;-79
2021/07/04 12:13:16;;;;;;;7.30;4.95;;;25.50;99.90;;;;;;5032045;28;20202;-81
2021/07/04 12:15:48;;;;;;;10.32;5.72;;;25.70;99.90;;;;;;5043662;28;20566;-80
2021/07/04 12:18:16;;;;;;;3.40;3.10;;;25.90;99.90;;;;;;5042096;28;20571;-80
2021/07/04 12:20:43;;;;;;;4.65;2.90;;;25.90;99.90;;;;;;5046990;28;20821;-81
2021/07/04 12:23:12;;;;;;;5.15;3.30;;;26.00;99.90;;;;;;5047108;28;20344;-81
2021/07/04 12:25:43;;;;;;;4.50;2.80;;;26.20;99.90;;;;;;5046148;28;20197;-78
2021/07/04 12:28:10;;;;;;;3.65;2.70;;;26.10;99.90;;;;;;5047210;28;20212;-77
2021/07/04 12:30:38;;;;;;;5.45;3.50;;;26.20;99.90;;;;;;5041696;28;20214;-79
2021/07/04 12:33:08;;;;;;;3.88;2.70;;;26.00;99.90;;;;;;5034905;28;20202;-81
2021/07/04 12:35:41;;;;;;;4.47;2.55;;;25.90;99.90;;;;;;5047498;28;20707;-82
2021/07/04 12:38:12;;;;;;;3.55;2.65;;;26.00;99.90;;;;;;5047349;28;20802;-83
2021/07/04 12:40:53;;;;;;;3.10;2.10;;;26.00;99.90;;;;;;5047919;28;20494;-81
2021/07/04 12:43:24;;;;;;;3.58;2.40;;;25.90;99.90;;;;;;5027862;28;20803;-84
2021/07/04 12:45:53;;;;;;;2.85;2.08;;;26.00;99.90;;;;;;5028910;28;20210;-81
2021/07/04 12:48:24;;;;;;;1.90;1.70;;;26.10;99.90;;;;;;5030370;28;20217;-86